Time;durP1;ratioP1;P1;durP2;ratioP2;P2;SDS_P1;SDS_P2;PMS_P1;PMS_P2;Temp;Humidity;BMP_temperature;BMP_pressure;BME280_temperature;BME280_humidity;BME280_pressure;Samples;Min_cycle;Max_cycle;Signal;HPM_P1;HPM_P2
2022/12/28 00:01:51;;;;;;;;;;;;;;;11.78;55.34;97889.03;4248216;27;5649;-67
2022/12/28 00:03:54;;;;;;;;;;;;;;;11.78;55.77;97894.34;4241346;27;5940;-68
2022/12/28 00:05:57;;;;;;;;;;;;;;;11.76;55.43;97889.22;4247820;27;5591;-68
2022/12/28 00:08:01;;;;;;;;;;;;;;;11.76;55.78;97878.63;4233425;27;5602;-67
2022/12/28 00:10:05;;;;;;;;;;;;;;;11.77;55.42;97879.44;4241504;27;5681;-68
2022/12/28 00:12:08;;;;;;;;;;;;;;;11.76;55.64;97875.97;4247570;27;6304;-68
2022/12/28 00:14:10;;;;;;;;;;;;;;;11.75;55.86;97868.22;4234395;27;5612;-68
2022/12/28 00:16:24;;;;;;;;;;;;;;;11.76;55.86;97865.38;4248087;27;5760;-68
2022/12/28 00:18:26;;;;;;;;;;;;;;;11.79;55.58;97857.13;4228847;27;5608;-65
2022/12/28 00:20:29;;;;;;;;;;;;;;;11.80;55.87;97861.44;4250708;27;5580;-65
2022/12/28 00:22:32;;;;;;;;;;;;;;;11.80;55.86;97861.44;4227627;27;5676;-66
2022/12/28 00:24:37;;;;;;;;;;;;;;;11.77;56.01;97856.44;4229288;28;5616;-66
2022/12/28 00:26:40;;;;;;;;;;;;;;;11.81;55.96;97851.66;4234132;28;5732;-66
2022/12/28 00:28:42;;;;;;;;;;;;;;;11.83;55.96;97849.66;4235342;28;5590;-66
2022/12/28 00:30:45;;;;;;;;;;;;;;;11.82;55.75;97843.53;4228006;28;5606;-66
2022/12/28 00:32:48;;;;;;;;;;;;;;;11.82;55.83;97843.53;4229415;28;6313;-66
2022/12/28 00:34:50;;;;;;;;;;;;;;;11.85;55.98;97842.34;4223151;28;5672;-66
2022/12/28 00:36:54;;;;;;;;;;;;;;;11.84;55.92;97840.72;4227966;28;6291;-66
2022/12/28 00:39:14;;;;;;;;;;;;;;;11.82;56.14;97837.41;4226239;28;5823;-67
2022/12/28 00:41:18;;;;;;;;;;;;;;;11.78;55.80;97838.72;4235205;28;5745;-66
2022/12/28 00:43:21;;;;;;;;;;;;;;;11.78;55.91;97836.91;4225677;28;5606;-66
2022/12/28 00:45:24;;;;;;;;;;;;;;;11.81;55.86;97841.06;4233592;28;5855;-66
2022/12/28 00:47:26;;;;;;;;;;;;;;;11.79;56.15;97837.75;4220724;28;5613;-66
2022/12/28 00:49:29;;;;;;;;;;;;;;;11.77;55.84;97837.06;4221666;28;5910;-66
2022/12/28 00:51:32;;;;;;;;;;;;;;;11.75;55.94;97841.72;4234502;28;5606;-66
2022/12/28 00:53:35;;;;;;;;;;;;;;;11.75;55.90;97833.78;4235926;28;5602;-66
2022/12/28 00:55:38;;;;;;;;;;;;;;;11.74;56.09;97840.91;4232014;28;5602;-66
2022/12/28 00:57:42;;;;;;;;;;;;;;;11.73;56.29;97828.66;4226346;28;5856;-66
2022/12/28 00:59:45;;;;;;;;;;;;;;;11.75;56.04;97831.94;4223096;28;5578;-66
2022/12/28 01:01:48;;;;;;;;;;;;;;;11.78;56.21;97831.63;4231682;28;5734;-66
2022/12/28 01:03:51;;;;;;;;;;;;;;;11.76;56.26;97832.78;4244974;27;6072;-67
2022/12/28 01:05:54;;;;;;;;;;;;;;;11.74;56.00;97835.59;4221662;27;5680;-67
2022/12/28 01:07:56;;;;;;;;;;;;;;;11.76;56.21;97835.41;4218259;27;5676;-66
2022/12/28 01:09:59;;;;;;;;;;;;;;;11.75;56.18;97826.66;4230143;27;5578;-66
2022/12/28 01:12:02;;;;;;;;;;;;;;;11.76;56.25;97827.47;4231512;27;5883;-66
2022/12/28 01:14:06;;;;;;;;;;;;;;;11.75;56.14;97825.81;4220832;27;5628;-66
2022/12/28 01:16:12;;;;;;;;;;;;;;;11.77;56.20;97821.16;4217054;28;5727;-66
2022/12/28 01:18:15;;;;;;;;;;;;;;;11.76;56.00;97812.41;4251687;27;5587;-66
2022/12/28 01:20:18;;;;;;;;;;;;;;;11.76;56.31;97811.56;4221657;28;5625;-66
2022/12/28 01:22:21;;;;;;;;;;;;;;;11.75;56.19;97815.22;4229548;28;6445;-66
2022/12/28 01:24:24;;;;;;;;;;;;;;;11.73;56.48;97814.59;4227539;27;5525;-66
2022/12/28 01:26:26;;;;;;;;;;;;;;;11.69;56.62;97824.72;4252415;27;5582;-67
2022/12/28 01:28:29;;;;;;;;;;;;;;;11.67;56.26;97826.72;4232411;27;5080;-66
2022/12/28 01:30:33;;;;;;;;;;;;;;;11.68;56.74;97830.19;4221115;27;5669;-66
2022/12/28 01:32:41;;;;;;;;;;;;;;;11.70;56.20;97830.84;4249033;27;5673;-66
2022/12/28 01:34:43;;;;;;;;;;;;;;;11.73;56.44;97833.13;4252383;27;5680;-66
2022/12/28 01:36:46;;;;;;;;;;;;;;;11.73;56.44;97825.19;4235283;27;5677;-66
2022/12/28 01:38:52;;;;;;;;;;;;;;;11.71;55.98;97824.53;4229313;27;5628;-66
2022/12/28 01:40:55;;;;;;;;;;;;;;;11.69;56.39;97821.25;4208926;28;5606;-66
2022/12/28 01:42:58;;;;;;;;;;;;;;;11.68;56.57;97819.59;4229412;28;5594;-66
2022/12/28 01:45:15;;;;;;;;;;;;;;;11.64;56.23;97814.63;4231388;27;6350;-66
2022/12/28 01:47:26;;;;;;;;;;;;;;;11.66;56.51;97820.59;4235011;27;6382;-67
2022/12/28 01:49:31;;;;;;;;;;;;;;;11.65;56.54;97815.44;4224476;28;5692;-66
2022/12/28 01:51:42;;;;;;;;;;;;;;;11.61;56.45;97817.63;4235596;27;5583;-66
2022/12/28 01:53:45;;;;;;;;;;;;;;;11.61;56.54;97817.63;4241895;27;5587;-66
2022/12/28 01:55:48;;;;;;;;;;;;;;;11.64;56.30;97817.28;4251987;27;5678;-66
2022/12/28 01:57:55;;;;;;;;;;;;;;;11.61;56.22;97811.50;4232736;27;5665;-66
2022/12/28 02:00:02;;;;;;;;;;;;;;;11.62;56.42;97813.97;4218586;28;5624;-66
2022/12/28 02:02:05;;;;;;;;;;;;;;;11.64;56.47;97811.97;4226682;27;5657;-66
2022/12/28 02:04:10;;;;;;;;;;;;;;;11.66;56.47;97812.66;4238098;27;5788;-67
2022/12/28 02:06:13;;;;;;;;;;;;;;;11.59;56.41;97817.00;4234736;27;6383;-66
2022/12/28 02:08:20;;;;;;;;;;;;;;;11.59;56.66;97822.28;4234741;27;5738;-66
2022/12/28 02:10:24;;;;;;;;;;;;;;;11.57;56.57;97821.63;4217591;28;5613;-66
2022/12/28 02:12:46;;;;;;;;;;;;;;;11.58;56.53;97809.22;4219542;27;5863;-67
2022/12/28 02:14:49;;;;;;;;;;;;;;;11.59;56.54;97817.00;4236764;27;5796;-66
2022/12/28 02:16:54;;;;;;;;;;;;;;;11.63;56.29;97812.97;4218101;28;5085;-67
2022/12/28 02:18:57;;;;;;;;;;;;;;;11.65;56.25;97813.63;4228523;27;6284;-68
2022/12/28 02:21:17;;;;;;;;;;;;;;;11.63;56.51;97807.69;4223504;27;5672;-68
2022/12/28 02:23:35;;;;;;;;;;;;;;;11.63;56.61;97809.50;4226520;28;5586;-67
2022/12/28 02:25:56;;;;;;;;;;;;;;;11.62;56.48;97806.03;4230758;28;5759;-68
2022/12/28 02:28:08;;;;;;;;;;;;;;;11.60;56.47;97800.09;4225675;28;5087;-69
2022/12/28 02:30:13;;;;;;;;;;;;;;;11.61;56.57;97799.09;4232323;28;7711;-69
2022/12/28 02:32:29;;;;;;;;;;;;;;;11.62;56.87;97799.91;4225446;28;5586;-69
2022/12/28 02:34:38;;;;;;;;;;;;;;;11.62;56.90;97798.09;4228190;28;5712;-69
2022/12/28 02:36:46;;;;;;;;;;;;;;;11.58;56.45;97793.34;4217889;27;5702;-68
2022/12/28 02:38:53;;;;;;;;;;;;;;;11.56;56.59;97790.88;4224438;28;5657;-68
2022/12/28 02:41:01;;;;;;;;;;;;;;;11.59;56.53;97787.03;4225199;28;5697;-72
2022/12/28 02:43:04;;;;;;;;;;;;;;;11.59;56.56;97779.09;4232006;28;5610;-73
2022/12/28 02:50:07;;;;;;;;;;;;;;;11.56;56.98;97780.28;4184817;28;5738;-70
2022/12/28 02:52:21;;;;;;;;;;;;;;;11.56;56.84;97776.81;4198174;28;5695;-70
2022/12/28 02:57:11;;;;;;;;;;;;;;;11.55;56.94;97777.78;4198686;28;5645;-69
2022/12/28 02:59:37;;;;;;;;;;;;;;;11.54;56.78;97774.28;4194108;28;5732;-73
2022/12/28 03:02:00;;;;;;;;;;;;;;;11.55;56.80;97770.69;4196045;28;5667;-72
2022/12/28 03:04:15;;;;;;;;;;;;;;;11.56;56.60;97764.38;4197956;28;5730;-69
2022/12/28 03:08:56;;;;;;;;;;;;;;;11.58;56.76;97756.25;4197709;28;5074;-72
2022/12/28 03:11:04;;;;;;;;;;;;;;;11.59;56.93;97760.53;4197715;28;5643;-69
2022/12/28 03:13:41;;;;;;;;;;;;;;;11.58;56.93;97757.06;4196423;28;5186;-72
2022/12/28 03:15:38;;;;;;;;;;;;;;;11.60;56.69;97752.44;4191851;28;5755;-73
2022/12/28 03:32:09;;;;;;;;;;;;;;;11.56;56.87;97732.59;4198576;28;5795;-74
2022/12/28 03:34:13;;;;;;;;;;;;;;;11.56;57.38;97722.00;4213016;28;5700;-74
2022/12/28 03:36:23;;;;;;;;;;;;;;;11.57;57.02;97717.53;4203410;28;5789;-67
2022/12/28 03:38:31;;;;;;;;;;;;;;;11.59;57.27;97724.28;4191970;28;6470;-67
2022/12/28 03:40:44;;;;;;;;;;;;;;;11.57;56.97;97723.66;4203943;28;5774;-68
2022/12/28 03:45:18;;;;;;;;;;;;;;;11.53;57.40;97721.50;4210264;28;5905;-68
2022/12/28 03:47:44;;;;;;;;;;;;;;;11.51;56.93;97715.56;4192871;28;5725;-74
2022/12/28 03:49:47;;;;;;;;;;;;;;;11.51;57.37;97719.03;4202858;28;5699;-73
2022/12/28 03:51:52;;;;;;;;;;;;;;;11.51;57.23;97719.03;4201583;28;5916;-75
2022/12/28 03:53:55;;;;;;;;;;;;;;;11.51;57.22;97713.75;4211117;28;5865;-69
2022/12/28 03:56:10;;;;;;;;;;;;;;;11.51;57.05;97713.75;4203370;28;5947;-71
2022/12/28 03:58:13;;;;;;;;;;;;;;;11.48;57.02;97700.88;4212088;28;5880;-72
2022/12/28 04:00:16;;;;;;;;;;;;;;;11.50;57.11;97711.28;4204331;28;5684;-69
2022/12/28 04:02:18;;;;;;;;;;;;;;;11.49;57.31;97707.81;4209258;28;5781;-69
2022/12/28 04:04:21;;;;;;;;;;;;;;;11.46;57.16;97700.22;4196005;28;5808;-72
2022/12/28 04:06:25;;;;;;;;;;;;;;;11.48;57.39;97698.22;4208586;28;6498;-73
2022/12/28 04:08:31;;;;;;;;;;;;;;;11.46;57.35;97700.22;4212218;28;5665;-70
2022/12/28 04:10:33;;;;;;;;;;;;;;;11.44;57.30;97699.59;4209079;28;5728;-74
2022/12/28 04:12:36;;;;;;;;;;;;;;;11.42;57.27;97688.31;4189101;28;5731;-74
2022/12/28 04:14:39;;;;;;;;;;;;;;;11.41;57.22;97691.16;4198595;28;5698;-73
2022/12/28 04:16:41;;;;;;;;;;;;;;;11.42;57.26;97693.63;4188783;28;5892;-70
2022/12/28 04:18:44;;;;;;;;;;;;;;;11.42;57.40;97692.78;4213845;28;5766;-70
2022/12/28 04:20:47;;;;;;;;;;;;;;;11.38;57.30;97687.03;4214870;28;5700;-71
2022/12/28 04:22:50;;;;;;;;;;;;;;;11.38;57.47;97687.03;4209403;28;5836;-73
2022/12/28 04:24:54;;;;;;;;;;;;;;;11.40;57.23;97685.03;4208469;28;5784;-67
2022/12/28 04:26:57;;;;;;;;;;;;;;;11.38;57.28;97684.41;4219002;28;5726;-67
2022/12/28 04:29:01;;;;;;;;;;;;;;;11.36;57.46;97686.41;4216914;28;5775;-66
2022/12/28 04:31:05;;;;;;;;;;;;;;;11.35;57.20;97684.75;4210569;28;5685;-67
2022/12/28 04:33:08;;;;;;;;;;;;;;;11.35;57.22;97690.88;4213402;28;5838;-66
2022/12/28 04:35:11;;;;;;;;;;;;;;;11.37;57.22;97688.88;4218751;28;5709;-67
2022/12/28 04:37:14;;;;;;;;;;;;;;;11.40;57.42;97690.34;4218333;28;5728;-66
2022/12/28 04:39:17;;;;;;;;;;;;;;;11.37;57.42;97691.50;4216838;28;6355;-66
2022/12/28 04:41:21;;;;;;;;;;;;;;;11.35;57.38;97687.41;4219273;28;5668;-66
2022/12/28 04:43:24;;;;;;;;;;;;;;;11.33;57.23;97689.41;4217215;28;5665;-66
2022/12/28 04:45:26;;;;;;;;;;;;;;;11.32;57.48;97687.72;4216615;28;5843;-66
2022/12/28 04:47:29;;;;;;;;;;;;;;;11.33;57.21;97686.75;4219094;28;5740;-67
2022/12/28 04:49:32;;;;;;;;;;;;;;;11.33;57.47;97690.22;4218285;28;5804;-66
2022/12/28 04:51:35;;;;;;;;;;;;;;;11.33;57.15;97689.41;4217767;28;5668;-67
2022/12/28 04:53:41;;;;;;;;;;;;;;;11.28;57.14;97681.97;4216936;28;5657;-67
2022/12/28 04:55:44;;;;;;;;;;;;;;;11.27;57.06;97684.81;4217830;28;5665;-67
2022/12/28 04:57:48;;;;;;;;;;;;;;;11.25;57.49;97690.28;4218403;28;5700;-66
2022/12/28 04:59:51;;;;;;;;;;;;;;;11.25;57.30;97678.88;4216742;28;5088;-67
2022/12/28 05:01:53;;;;;;;;;;;;;;;11.26;57.58;97672.56;4216394;28;5749;-66
2022/12/28 05:03:56;;;;;;;;;;;;;;;11.25;57.22;97676.22;4215882;28;5698;-67
2022/12/28 05:06:02;;;;;;;;;;;;;;;11.24;57.29;97674.56;4217526;28;5665;-67
2022/12/28 05:08:05;;;;;;;;;;;;;;;11.23;57.30;97680.88;4211485;28;5690;-66
2022/12/28 05:10:09;;;;;;;;;;;;;;;11.23;57.43;97671.09;4208164;28;5763;-66
2022/12/28 05:12:11;;;;;;;;;;;;;;;11.28;57.19;97681.97;4215248;28;5850;-67
2022/12/28 05:14:15;;;;;;;;;;;;;;;11.30;57.07;97679.97;4218152;28;5740;-66
2022/12/28 05:16:22;;;;;;;;;;;;;;;11.26;57.38;97678.69;4213057;28;5680;-66
2022/12/28 05:18:25;;;;;;;;;;;;;;;11.23;57.13;97679.03;4200203;28;5636;-66
2022/12/28 05:20:28;;;;;;;;;;;;;;;11.24;57.28;97680.69;4201821;28;5785;-66
2022/12/28 05:22:31;;;;;;;;;;;;;;;11.25;57.45;97681.50;4210530;28;5687;-66
2022/12/28 05:24:42;;;;;;;;;;;;;;;11.25;57.38;97676.22;4205072;28;5658;-67
2022/12/28 05:26:45;;;;;;;;;;;;;;;11.23;57.45;97673.75;4208564;28;5683;-67
2022/12/28 05:28:48;;;;;;;;;;;;;;;11.21;57.31;97665.16;4210228;28;5124;-67
2022/12/28 05:30:53;;;;;;;;;;;;;;;11.19;57.68;97655.72;4200406;28;5694;-66
2022/12/28 05:32:55;;;;;;;;;;;;;;;11.21;57.16;97662.53;4195492;28;5686;-66
2022/12/28 05:34:58;;;;;;;;;;;;;;;11.20;57.34;97673.25;4208177;28;5862;-67
2022/12/28 05:37:01;;;;;;;;;;;;;;;11.18;57.56;97676.09;4204006;28;5711;-66
2022/12/28 05:39:04;;;;;;;;;;;;;;;11.20;57.13;97667.97;4207161;28;5670;-66
2022/12/28 05:41:09;;;;;;;;;;;;;;;11.21;57.51;97669.59;4202781;28;5815;-66
2022/12/28 05:43:11;;;;;;;;;;;;;;;11.23;57.42;97673.75;4209660;28;5768;-66
2022/12/28 05:45:14;;;;;;;;;;;;;;;11.21;57.47;97673.09;4206481;28;5780;-67
2022/12/28 05:47:18;;;;;;;;;;;;;;;11.19;57.65;97667.13;4197955;28;5781;-67
2022/12/28 05:49:21;;;;;;;;;;;;;;;11.21;57.52;97672.25;4200575;28;6052;-67
2022/12/28 05:51:26;;;;;;;;;;;;;;;11.23;57.59;97672.94;4206321;28;5687;-67
2022/12/28 05:53:30;;;;;;;;;;;;;;;11.26;57.19;97662.81;4200495;28;5694;-66
2022/12/28 05:55:32;;;;;;;;;;;;;;;11.28;57.21;97662.63;4200369;28;5761;-66
2022/12/28 05:57:35;;;;;;;;;;;;;;;11.24;57.54;97656.03;4209105;28;5699;-66
2022/12/28 05:59:38;;;;;;;;;;;;;;;11.23;57.38;97651.75;4200439;28;5801;-67
2022/12/28 06:01:43;;;;;;;;;;;;;;;11.22;57.39;97655.41;4209130;28;5752;-67
2022/12/28 06:03:53;;;;;;;;;;;;;;;11.22;57.41;97652.75;4209512;28;5673;-67
2022/12/28 06:05:56;;;;;;;;;;;;;;;11.25;57.12;97649.75;4208389;28;5666;-67
2022/12/28 06:07:58;;;;;;;;;;;;;;;11.22;57.43;97650.09;4203076;28;5670;-67
2022/12/28 06:10:03;;;;;;;;;;;;;;;11.21;57.26;97653.72;4200499;28;5845;-67
2022/12/28 06:12:06;;;;;;;;;;;;;;;11.19;57.71;97645.97;4208464;28;5894;-66
2022/12/28 06:14:09;;;;;;;;;;;;;;;11.21;57.61;97646.66;4203473;28;5764;-66
2022/12/28 06:16:15;;;;;;;;;;;;;;;11.22;57.50;97645.63;4198627;28;5769;-67
2022/12/28 06:18:18;;;;;;;;;;;;;;;11.26;57.54;97646.09;4227547;28;5676;-67
2022/12/28 06:20:22;;;;;;;;;;;;;;;11.28;57.27;97639.63;4227478;28;5594;-67
2022/12/28 06:22:25;;;;;;;;;;;;;;;11.31;57.44;97638.44;4232557;28;5619;-67
2022/12/28 06:24:27;;;;;;;;;;;;;;;11.30;57.52;97639.44;4233156;28;5695;-66
2022/12/28 06:26:32;;;;;;;;;;;;;;;11.27;57.45;97642.44;4234108;27;5610;-67
2022/12/28 06:28:37;;;;;;;;;;;;;;;11.30;57.58;97647.38;4238317;27;5693;-67
2022/12/28 06:30:39;;;;;;;;;;;;;;;11.29;57.48;97641.25;4233320;27;5879;-67
2022/12/28 06:32:42;;;;;;;;;;;;;;;11.28;57.42;97644.91;4223550;28;5640;-67
2022/12/28 06:34:45;;;;;;;;;;;;;;;11.28;57.52;97633.50;4229315;28;5605;-67
2022/12/28 06:36:51;;;;;;;;;;;;;;;11.23;57.35;97635.88;4235421;27;5759;-67
2022/12/28 06:38:56;;;;;;;;;;;;;;;11.24;57.44;97637.53;4234460;28;5669;-68
2022/12/28 06:41:02;;;;;;;;;;;;;;;11.22;57.29;97629.75;4231436;28;5104;-66
2022/12/28 06:43:16;;;;;;;;;;;;;;;11.19;57.43;97635.38;4224904;28;5701;-67
2022/12/28 06:45:18;;;;;;;;;;;;;;;11.20;57.31;97641.50;4232007;28;5614;-67
2022/12/28 06:47:21;;;;;;;;;;;;;;;11.20;57.48;97634.38;4217808;28;5711;-67
2022/12/28 06:49:24;;;;;;;;;;;;;;;11.21;57.50;97632.56;4221986;28;6329;-67
2022/12/28 06:51:28;;;;;;;;;;;;;;;11.20;57.38;97631.72;4234202;28;6295;-67
2022/12/28 06:53:34;;;;;;;;;;;;;;;11.20;57.29;97633.56;4228311;28;5586;-67
2022/12/28 06:55:37;;;;;;;;;;;;;;;11.21;57.25;97636.06;4231723;28;5616;-67
2022/12/28 06:57:40;;;;;;;;;;;;;;;11.18;57.21;97628.44;4231749;28;5083;-67
2022/12/28 06:59:42;;;;;;;;;;;;;;;11.20;57.23;97630.91;4232232;28;7663;-66
2022/12/28 07:01:45;;;;;;;;;;;;;;;11.18;57.38;97624.97;4229732;28;5609;-67
2022/12/28 07:03:50;;;;;;;;;;;;;;;11.16;57.22;97630.44;4230217;28;5835;-67
2022/12/28 07:05:53;;;;;;;;;;;;;;;11.18;57.29;97628.44;4221276;28;6856;-67
2022/12/28 07:07:55;;;;;;;;;;;;;;;11.16;57.00;97624.34;4244230;27;6295;-67
2022/12/28 07:10:00;;;;;;;;;;;;;;;11.16;56.96;97622.50;4214645;28;5795;-68
2022/12/28 07:12:02;;;;;;;;;;;;;;;11.16;57.08;97629.63;4238528;27;5735;-68
2022/12/28 07:14:05;;;;;;;;;;;;;;;11.15;57.00;97633.28;4244075;27;5714;-68
2022/12/28 07:16:11;;;;;;;;;;;;;;;11.15;57.19;97635.91;4239991;27;5697;-68
2022/12/28 07:18:14;;;;;;;;;;;;;;;11.13;57.13;97635.28;4239924;27;5590;-67
2022/12/28 07:20:18;;;;;;;;;;;;;;;11.09;57.14;97640.91;4231202;28;5863;-67
2022/12/28 07:22:21;;;;;;;;;;;;;;;11.09;57.47;97634.78;4229612;28;5610;-67
2022/12/28 07:24:23;;;;;;;;;;;;;;;11.09;57.16;97630.31;4234005;28;5598;-67
2022/12/28 07:26:31;;;;;;;;;;;;;;;11.08;57.45;97626.03;4232374;28;5598;-67
2022/12/28 07:28:35;;;;;;;;;;;;;;;11.07;57.43;97627.03;4225379;28;5613;-67
2022/12/28 07:30:38;;;;;;;;;;;;;;;11.09;57.38;97618.91;4202574;28;5654;-67
2022/12/28 07:32:41;;;;;;;;;;;;;;;11.09;57.17;97625.03;4224485;28;5586;-67
2022/12/28 07:34:44;;;;;;;;;;;;;;;11.08;57.36;97619.91;4229096;28;5590;-68
2022/12/28 07:36:48;;;;;;;;;;;;;;;11.07;57.51;97620.91;4229179;28;5594;-68
2022/12/28 07:38:52;;;;;;;;;;;;;;;11.07;57.02;97615.63;4229008;28;5677;-67
2022/12/28 07:41:01;;;;;;;;;;;;;;;11.10;57.46;97607.34;4232808;28;5613;-67
2022/12/28 07:43:05;;;;;;;;;;;;;;;11.11;57.27;97605.53;4226810;28;5668;-67
2022/12/28 07:45:11;;;;;;;;;;;;;;;11.13;56.98;97600.88;4228803;28;5693;-67
2022/12/28 07:47:15;;;;;;;;;;;;;;;11.12;57.23;97609.81;4229928;28;5073;-67
2022/12/28 07:49:18;;;;;;;;;;;;;;;11.13;57.18;97603.53;4228667;28;5628;-68
2022/12/28 07:51:22;;;;;;;;;;;;;;;11.16;57.05;97605.81;4220525;28;5527;-68
2022/12/28 07:53:25;;;;;;;;;;;;;;;11.17;57.11;97610.09;4228478;28;6790;-65
2022/12/28 07:55:30;;;;;;;;;;;;;;;11.17;56.94;97602.97;4227984;28;5604;-66
2022/12/28 07:57:34;;;;;;;;;;;;;;;11.17;57.22;97605.63;4234528;28;5867;-66
2022/12/28 07:59:38;;;;;;;;;;;;;;;11.18;57.07;97604.63;4233604;28;5119;-66
2022/12/28 08:01:40;;;;;;;;;;;;;;;11.15;57.29;97602.34;4236227;28;5617;-67
2022/12/28 08:03:43;;;;;;;;;;;;;;;11.14;56.96;97603.34;4232421;27;5590;-66
2022/12/28 08:05:46;;;;;;;;;;;;;;;11.15;57.18;97599.69;4229679;27;5582;-66
2022/12/28 08:07:49;;;;;;;;;;;;;;;11.15;57.04;97602.34;4231550;27;5624;-66
2022/12/28 08:09:52;;;;;;;;;;;;;;;11.14;57.24;97600.69;4227019;28;5689;-66
2022/12/28 08:11:55;;;;;;;;;;;;;;;11.14;57.11;97598.06;4235306;28;5262;-66
2022/12/28 08:13:59;;;;;;;;;;;;;;;11.19;57.21;97598.31;4223697;27;7660;-66
2022/12/28 08:16:03;;;;;;;;;;;;;;;11.22;56.95;97594.53;4223812;28;5753;-66
2022/12/28 08:18:07;;;;;;;;;;;;;;;11.19;57.32;97603.63;4226608;27;5708;-66
2022/12/28 08:20:10;;;;;;;;;;;;;;;11.23;57.40;97606.75;4222117;27;5807;-66
2022/12/28 08:22:13;;;;;;;;;;;;;;;11.23;57.13;97604.13;4230164;28;5742;-66
2022/12/28 08:24:17;;;;;;;;;;;;;;;11.22;57.38;97597.19;4221056;28;5839;-66
2022/12/28 08:26:22;;;;;;;;;;;;;;;11.21;57.13;97603.44;4211831;28;5784;-66
2022/12/28 08:28:25;;;;;;;;;;;;;;;11.23;57.43;97607.59;4229428;27;5703;-65
2022/12/28 08:30:28;;;;;;;;;;;;;;;11.25;57.31;97607.41;4224805;27;5692;-66
2022/12/28 08:32:32;;;;;;;;;;;;;;;11.25;57.13;97605.56;4228648;28;5693;-66
2022/12/28 08:34:35;;;;;;;;;;;;;;;11.27;57.06;97613.34;4227257;28;5743;-66
2022/12/28 08:36:38;;;;;;;;;;;;;;;11.23;57.39;97615.53;4229203;28;6785;-66
2022/12/28 08:38:42;;;;;;;;;;;;;;;11.23;57.05;97620.00;4224981;28;5697;-67
2022/12/28 08:40:44;;;;;;;;;;;;;;;11.29;57.06;97613.97;4238206;27;5602;-66
2022/12/28 08:42:47;;;;;;;;;;;;;;;11.28;57.22;97613.16;4233216;28;5689;-66
2022/12/28 08:44:51;;;;;;;;;;;;;;;11.27;57.16;97616.81;4223883;28;5681;-67
2022/12/28 08:46:54;;;;;;;;;;;;;;;11.29;57.12;97619.28;4211287;28;5746;-66
2022/12/28 08:49:00;;;;;;;;;;;;;;;11.30;57.12;97615.63;4228514;28;5612;-66
2022/12/28 08:51:04;;;;;;;;;;;;;;;11.30;56.96;97620.91;4224109;28;5694;-67
2022/12/28 08:53:07;;;;;;;;;;;;;;;11.26;57.36;97620.44;4226012;28;5756;-66
2022/12/28 08:55:10;;;;;;;;;;;;;;;11.27;57.25;97610.69;4241588;27;5835;-67
2022/12/28 08:57:13;;;;;;;;;;;;;;;11.28;57.52;97618.44;4219347;27;5793;-66
2022/12/28 08:59:18;;;;;;;;;;;;;;;11.29;57.25;97619.28;4250635;27;5677;-66
2022/12/28 09:01:23;;;;;;;;;;;;;;;11.32;57.47;97618.91;4234148;27;5701;-66
2022/12/28 09:03:26;;;;;;;;;;;;;;;11.32;57.10;97611.78;4216426;28;5641;-67
2022/12/28 09:05:31;;;;;;;;;;;;;;;11.34;57.32;97607.16;4218454;27;5776;-73
2022/12/28 09:07:41;;;;;;;;;;;;;;;11.37;57.39;97617.38;4217508;28;5684;-74
2022/12/28 09:09:43;;;;;;;;;;;;;;;11.36;57.10;97610.44;4226342;28;5771;-66
2022/12/28 09:11:46;;;;;;;;;;;;;;;11.38;57.21;97618.22;4217515;28;5864;-66
2022/12/28 09:13:49;;;;;;;;;;;;;;;11.36;57.21;97622.88;4228797;28;5594;-66
2022/12/28 09:15:56;;;;;;;;;;;;;;;11.35;57.12;97614.09;4226694;28;5605;-66
2022/12/28 09:18:00;;;;;;;;;;;;;;;11.35;57.16;97614.09;4228487;28;5706;-66
2022/12/28 09:20:02;;;;;;;;;;;;;;;11.34;57.17;97606.34;4228172;27;5861;-67
2022/12/28 09:22:06;;;;;;;;;;;;;;;11.34;57.10;97609.81;4228843;28;5657;-68
2022/12/28 09:24:09;;;;;;;;;;;;;;;11.34;57.10;97611.63;4230202;27;6550;-67
2022/12/28 09:26:14;;;;;;;;;;;;;;;11.30;57.05;97610.31;4222793;28;5759;-68
2022/12/28 09:28:17;;;;;;;;;;;;;;;11.28;57.17;97618.44;4224060;27;5681;-68
2022/12/28 09:30:19;;;;;;;;;;;;;;;11.26;56.92;97616.97;4221717;28;5662;-65
2022/12/28 09:32:22;;;;;;;;;;;;;;;11.26;56.94;97619.63;4225570;27;5708;-67
2022/12/28 09:34:25;;;;;;;;;;;;;;;11.23;56.93;97620.81;4225289;27;5750;-66
2022/12/28 09:36:44;;;;;;;;;;;;;;;11.23;57.17;97618.16;4224837;27;5685;-67
2022/12/28 09:38:49;;;;;;;;;;;;;;;11.25;57.28;97618.00;4223805;27;5586;-67
2022/12/28 09:40:52;;;;;;;;;;;;;;;11.26;57.01;97615.16;4227964;27;5618;-67
2022/12/28 09:42:55;;;;;;;;;;;;;;;11.28;56.93;97617.63;4227868;27;5697;-67
2022/12/28 09:45:02;;;;;;;;;;;;;;;11.26;57.00;97609.03;4230319;27;5606;-66
2022/12/28 09:47:16;;;;;;;;;;;;;;;11.25;57.03;97604.75;4227499;27;5823;-66
2022/12/28 09:49:24;;;;;;;;;;;;;;;11.27;57.05;97613.34;4225673;28;5767;-67
2022/12/28 09:51:33;;;;;;;;;;;;;;;11.32;56.75;97613.63;4225419;28;5613;-68
2022/12/28 09:53:36;;;;;;;;;;;;;;;11.33;57.01;97616.09;4225857;28;5801;-67
2022/12/28 09:55:53;;;;;;;;;;;;;;;11.30;56.66;97618.25;4226213;28;5756;-68
2022/12/28 09:57:58;;;;;;;;;;;;;;;11.28;56.71;97612.31;4221247;28;5948;-68
2022/12/28 10:00:02;;;;;;;;;;;;;;;11.26;57.03;97609.88;4234684;27;5587;-67
2022/12/28 10:02:17;;;;;;;;;;;;;;;11.30;57.02;97610.31;4236775;27;5726;-68
2022/12/28 10:04:20;;;;;;;;;;;;;;;11.35;56.44;97607.97;4234751;27;5587;-67
2022/12/28 10:06:25;;;;;;;;;;;;;;;11.36;56.41;97614.91;4234555;27;5595;-67
2022/12/28 10:08:29;;;;;;;;;;;;;;;11.33;56.58;97608.16;4227704;27;6664;-66
2022/12/28 10:10:33;;;;;;;;;;;;;;;11.30;56.75;97608.50;4248035;27;5595;-66
2022/12/28 10:12:37;;;;;;;;;;;;;;;11.28;56.80;97609.69;4235850;27;5605;-67
2022/12/28 10:14:40;;;;;;;;;;;;;;;11.27;56.57;97608.03;4228716;27;5676;-65
2022/12/28 10:16:42;;;;;;;;;;;;;;;11.29;56.58;97603.38;4240622;27;5816;-66
2022/12/28 10:18:50;;;;;;;;;;;;;;;11.26;56.77;97601.94;4242635;27;5681;-67
2022/12/28 10:20:53;;;;;;;;;;;;;;;11.30;56.58;97594.44;4222355;28;5798;-68
2022/12/28 10:22:58;;;;;;;;;;;;;;;11.34;56.62;97598.41;4220807;27;7379;-69
2022/12/28 10:25:01;;;;;;;;;;;;;;;11.33;56.31;97594.09;4234904;27;5630;-68
2022/12/28 10:27:06;;;;;;;;;;;;;;;11.28;56.68;97585.88;4227374;28;5740;-67
2022/12/28 10:29:18;;;;;;;;;;;;;;;11.24;56.26;97580.09;4230498;28;5594;-67
2022/12/28 10:31:32;;;;;;;;;;;;;;;11.26;56.32;97577.28;4233782;28;5598;-67
2022/12/28 10:33:39;;;;;;;;;;;;;;;11.25;56.45;97575.63;4232220;28;5685;-69
2022/12/28 10:35:48;;;;;;;;;;;;;;;11.26;56.24;97572.00;4235376;27;5780;-72
2022/12/28 10:37:52;;;;;;;;;;;;;;;11.28;56.10;97562.03;4228645;27;5844;-70
2022/12/28 10:39:58;;;;;;;;;;;;;;;11.28;56.03;97569.97;4229518;27;5593;-68
2022/12/28 10:42:02;;;;;;;;;;;;;;;11.26;56.26;97561.41;4227684;27;5594;-68
2022/12/28 10:44:25;;;;;;;;;;;;;;;11.24;55.72;97552.81;4228834;27;5622;-68
2022/12/28 10:46:52;;;;;;;;;;;;;;;11.23;56.09;97553.81;4227246;27;5636;-77
2022/12/28 10:48:58;;;;;;;;;;;;;;;11.21;56.05;97547.88;4230193;27;5670;-81
2022/12/28 10:51:12;;;;;;;;;;;;;;;11.22;56.11;97550.34;4224945;28;5703;-79
2022/12/28 10:53:32;;;;;;;;;;;;;;;11.23;55.85;97545.88;4228128;28;5751;-82
2022/12/28 10:55:35;;;;;;;;;;;;;;;11.25;55.65;97544.69;4225086;27;5684;-80
2022/12/28 10:57:37;;;;;;;;;;;;;;;11.26;55.43;97535.75;4223988;27;5613;-74
2022/12/28 11:00:21;;;;;;;;;;;;;;;11.26;55.16;97524.34;4224091;28;5620;-73
2022/12/28 11:02:27;;;;;;;;;;;;;;;11.30;55.28;97525.63;4223987;28;5909;-69
2022/12/28 11:04:30;;;;;;;;;;;;;;;11.26;55.15;97519.06;4226830;27;5079;-79
2022/12/28 11:06:34;;;;;;;;;;;;;;;11.27;55.48;97508.28;4228464;27;5700;-71
2022/12/28 11:08:38;;;;;;;;;;;;;;;11.25;55.31;97512.13;4226810;28;5589;-70
2022/12/28 11:10:41;;;;;;;;;;;;;;;11.26;55.24;97498.69;4231875;27;6666;-71
2022/12/28 11:12:45;;;;;;;;;;;;;;;11.27;55.50;97499.53;4223562;28;5676;-69
2022/12/28 11:14:47;;;;;;;;;;;;;;;11.26;55.51;97500.53;4230553;27;5606;-74
2022/12/28 11:16:52;;;;;;;;;;;;;;;11.30;55.36;97499.97;4225063;27;5594;-70
2022/12/28 11:18:55;;;;;;;;;;;;;;;11.32;55.15;97492.66;4225197;28;5716;-72
2022/12/28 11:20:58;;;;;;;;;;;;;;;11.30;55.08;97488.56;4225365;27;5772;-70
2022/12/28 11:23:01;;;;;;;;;;;;;;;11.30;55.43;97480.63;4223811;28;5792;-72
2022/12/28 11:25:06;;;;;;;;;;;;;;;11.30;55.08;97486.75;4221838;27;5758;-70
2022/12/28 11:27:13;;;;;;;;;;;;;;;11.33;54.96;97483.75;4224565;27;5767;-71
2022/12/28 11:29:19;;;;;;;;;;;;;;;11.35;54.76;97492.31;4222096;27;5834;-67